sensor_id;sensor_type;location;lat;lon;timestamp;pressure;altitude;pressure_sealevel;temperature;humidity
32330;BME280;18807;52.434;13.238;2023-02-02T00:02:28;100436.50;;;4.37;100.00
32330;BME280;18807;52.434;13.238;2023-02-02T00:10:02;100431.78;;;4.54;100.00
32330;BME280;18807;52.434;13.238;2023-02-02T00:17:37;100431.13;;;4.61;100.00
32330;BME280;18807;52.434;13.238;2023-02-02T00:25:11;100432.28;;;4.69;100.00
32330;BME280;18807;52.434;13.238;2023-02-02T00:32:46;100422.88;;;4.78;100.00
32330;BME280;18807;52.434;13.238;2023-02-02T00:40:22;100417.91;;;4.87;100.00
32330;BME280;18807;52.434;13.238;2023-02-02T00:47:57;100414.69;;;4.97;100.00
32330;BME280;18807;52.434;13.238;2023-02-02T00:55:31;100404.28;;;5.03;100.00
32330;BME280;18807;52.434;13.238;2023-02-02T01:03:06;100422.13;;;5.09;100.00
32330;BME280;18807;52.434;13.238;2023-02-02T01:10:41;100416.50;;;4.98;100.00
32330;BME280;18807;52.434;13.238;2023-02-02T01:18:16;100412.00;;;4.96;100.00
32330;BME280;18807;52.434;13.238;2023-02-02T01:25:52;100429.72;;;4.98;100.00
32330;BME280;18807;52.434;13.238;2023-02-02T01:33:28;100435.03;;;4.98;100.00
32330;BME280;18807;52.434;13.238;2023-02-02T01:41:02;100459.47;;;4.91;100.00
32330;BME280;18807;52.434;13.238;2023-02-02T01:48:40;100459.00;;;4.76;100.00
32330;BME280;18807;52.434;13.238;2023-02-02T01:56:18;100455.03;;;4.64;100.00
32330;BME280;18807;52.434;13.238;2023-02-02T02:03:54;100454.06;;;4.62;100.00
32330;BME280;18807;52.434;13.238;2023-02-02T02:11:29;100459.41;;;4.63;100.00
32330;BME280;18807;52.434;13.238;2023-02-02T02:19:27;100470.22;;;4.69;100.00
32330;BME280;18807;52.434;13.238;2023-02-02T02:35:23;100471.13;;;4.70;100.00
32330;BME280;18807;52.434;13.238;2023-02-02T02:43:05;100474.63;;;4.69;100.00
32330;BME280;18807;52.434;13.238;2023-02-02T02:50:43;100490.75;;;4.78;100.00
32330;BME280;18807;52.434;13.238;2023-02-02T02:58:22;100502.47;;;4.84;100.00
32330;BME280;18807;52.434;13.238;2023-02-02T03:06:04;100504.25;;;4.85;100.00
32330;BME280;18807;52.434;13.238;2023-02-02T03:13:41;100530.66;;;4.84;100.00
32330;BME280;18807;52.434;13.238;2023-02-02T03:21:17;100534.00;;;4.78;100.00
32330;BME280;18807;52.434;13.238;2023-02-02T03:28:52;100567.41;;;4.75;100.00
32330;BME280;18807;52.434;13.238;2023-02-02T03:36:30;100566.56;;;4.76;100.00
32330;BME280;18807;52.434;13.238;2023-02-02T03:44:04;100591.22;;;4.75;100.00
32330;BME280;18807;52.434;13.238;2023-02-02T03:51:39;100600.88;;;4.74;100.00
32330;BME280;18807;52.434;13.238;2023-02-02T03:59:14;100614.00;;;4.71;100.00
32330;BME280;18807;52.434;13.238;2023-02-02T04:06:49;100632.47;;;4.70;100.00
32330;BME280;18807;52.434;13.238;2023-02-02T04:14:23;100645.75;;;4.71;100.00
32330;BME280;18807;52.434;13.238;2023-02-02T04:21:58;100665.22;;;4.73;100.00
32330;BME280;18807;52.434;13.238;2023-02-02T04:29:32;100671.50;;;4.77;100.00
32330;BME280;18807;52.434;13.238;2023-02-02T04:37:10;100673.34;;;4.79;100.00
32330;BME280;18807;52.434;13.238;2023-02-02T04:44:44;100678.75;;;4.82;100.00
32330;BME280;18807;52.434;13.238;2023-02-02T04:52:19;100705.22;;;4.82;100.00
32330;BME280;18807;52.434;13.238;2023-02-02T04:59:53;100712.44;;;4.86;100.00
32330;BME280;18807;52.434;13.238;2023-02-02T05:07:28;100718.50;;;4.84;100.00
32330;BME280;18807;52.434;13.238;2023-02-02T05:15:03;100736.19;;;4.85;100.00
32330;BME280;18807;52.434;13.238;2023-02-02T05:22:38;100746.84;;;4.86;100.00
32330;BME280;18807;52.434;13.238;2023-02-02T05:30:13;100773.41;;;4.89;100.00
32330;BME280;18807;52.434;13.238;2023-02-02T05:37:49;100778.72;;;4.89;100.00
32330;BME280;18807;52.434;13.238;2023-02-02T05:45:23;100782.19;;;4.88;100.00
32330;BME280;18807;52.434;13.238;2023-02-02T05:52:59;100798.06;;;4.88;100.00
32330;BME280;18807;52.434;13.238;2023-02-02T06:00:33;100796.25;;;4.87;100.00
32330;BME280;18807;52.434;13.238;2023-02-02T06:08:08;100812.09;;;4.86;100.00
32330;BME280;18807;52.434;13.238;2023-02-02T06:15:42;100838.59;;;4.87;100.00
32330;BME280;18807;52.434;13.238;2023-02-02T06:23:17;100843.84;;;4.86;100.00
32330;BME280;18807;52.434;13.238;2023-02-02T06:30:51;100859.66;;;4.84;100.00
32330;BME280;18807;52.434;13.238;2023-02-02T06:38:27;100865.78;;;4.83;100.00
32330;BME280;18807;52.434;13.238;2023-02-02T06:46:01;100881.53;;;4.80;100.00
32330;BME280;18807;52.434;13.238;2023-02-02T06:53:37;100892.25;;;4.83;100.00
32330;BME280;18807;52.434;13.238;2023-02-02T07:01:12;100919.59;;;4.84;100.00
32330;BME280;18807;52.434;13.238;2023-02-02T07:08:48;100925.63;;;4.80;100.00
32330;BME280;18807;52.434;13.238;2023-02-02T07:16:34;100937.03;;;4.79;100.00
32330;BME280;18807;52.434;13.238;2023-02-02T07:24:09;100957.38;;;4.80;100.00
32330;BME280;18807;52.434;13.238;2023-02-02T07:31:43;100972.22;;;4.76;100.00
32330;BME280;18807;52.434;13.238;2023-02-02T07:39:19;100971.75;;;4.86;100.00
32330;BME280;18807;52.434;13.238;2023-02-02T07:46:53;100984.75;;;5.02;100.00
32330;BME280;18807;52.434;13.238;2023-02-02T07:54:28;100989.69;;;4.93;100.00
32330;BME280;18807;52.434;13.238;2023-02-02T08:02:03;101005.13;;;4.83;100.00
32330;BME280;18807;52.434;13.238;2023-02-02T08:09:38;101019.25;;;4.83;100.00
32330;BME280;18807;52.434;13.238;2023-02-02T08:17:13;101029.13;;;4.87;100.00
32330;BME280;18807;52.434;13.238;2023-02-02T08:24:48;101021.22;;;5.09;100.00
32330;BME280;18807;52.434;13.238;2023-02-02T08:32:22;101047.19;;;4.97;100.00
32330;BME280;18807;52.434;13.238;2023-02-02T08:39:57;101058.03;;;4.83;100.00
32330;BME280;18807;52.434;13.238;2023-02-02T08:47:33;101065.97;;;5.03;100.00
32330;BME280;18807;52.434;13.238;2023-02-02T08:55:09;101064.59;;;5.33;100.00
32330;BME280;18807;52.434;13.238;2023-02-02T09:02:43;101068.34;;;5.60;100.00
32330;BME280;18807;52.434;13.238;2023-02-02T09:10:18;101065.31;;;5.73;100.00
32330;BME280;18807;52.434;13.238;2023-02-02T09:17:53;101070.38;;;5.89;100.00
32330;BME280;18807;52.434;13.238;2023-02-02T09:25:28;101092.63;;;5.93;100.00
32330;BME280;18807;52.434;13.238;2023-02-02T09:33:02;101108.72;;;5.97;100.00
32330;BME280;18807;52.434;13.238;2023-02-02T09:40:38;101107.44;;;5.88;100.00
32330;BME280;18807;52.434;13.238;2023-02-02T09:48:19;101131.22;;;5.86;100.00
32330;BME280;18807;52.434;13.238;2023-02-02T09:55:59;101125.19;;;5.90;100.00
32330;BME280;18807;52.434;13.238;2023-02-02T10:03:41;101129.81;;;5.94;100.00
32330;BME280;18807;52.434;13.238;2023-02-02T10:11:33;101155.88;;;6.06;100.00
32330;BME280;18807;52.434;13.238;2023-02-02T10:19:11;101147.38;;;6.14;100.00
32330;BME280;18807;52.434;13.238;2023-02-02T10:26:49;101151.13;;;6.20;100.00
32330;BME280;18807;52.434;13.238;2023-02-02T10:34:28;101156.91;;;6.09;100.00
32330;BME280;18807;52.434;13.238;2023-02-02T10:42:15;101167.41;;;6.06;100.00
32330;BME280;18807;52.434;13.238;2023-02-02T10:50:00;101173.66;;;6.08;97.73
32330;BME280;18807;52.434;13.238;2023-02-02T10:57:52;101189.50;;;6.07;94.54
32330;BME280;18807;52.434;13.238;2023-02-02T11:05:30;101202.06;;;6.11;95.83
32330;BME280;18807;52.434;13.238;2023-02-02T11:13:27;101220.91;;;6.19;94.32
32330;BME280;18807;52.434;13.238;2023-02-02T11:21:15;101225.56;;;6.24;92.53
32330;BME280;18807;52.434;13.238;2023-02-02T11:28:53;101237.03;;;6.25;89.84
32330;BME280;18807;52.434;13.238;2023-02-02T11:36:31;101227.41;;;6.27;91.37
32330;BME280;18807;52.434;13.238;2023-02-02T11:44:15;101241.53;;;6.26;93.63
32330;BME280;18807;52.434;13.238;2023-02-02T11:52:01;101253.94;;;6.27;95.81
32330;BME280;18807;52.434;13.238;2023-02-02T11:59:38;101252.97;;;6.25;97.16
32330;BME280;18807;52.434;13.238;2023-02-02T12:07:23;101258.22;;;6.23;97.58
32330;BME280;18807;52.434;13.238;2023-02-02T12:15:05;101249.41;;;6.24;97.40
32330;BME280;18807;52.434;13.238;2023-02-02T12:22:55;101266.78;;;6.38;96.97
32330;BME280;18807;52.434;13.238;2023-02-02T12:30:37;101301.97;;;5.52;100.00
32330;BME280;18807;52.434;13.238;2023-02-02T12:38:20;101316.47;;;5.20;100.00
32330;BME280;18807;52.434;13.238;2023-02-02T12:46:08;101316.28;;;4.97;100.00
32330;BME280;18807;52.434;13.238;2023-02-02T12:54:16;101333.03;;;4.78;100.00
32330;BME280;18807;52.434;13.238;2023-02-02T13:02:24;101333.88;;;4.77;100.00
32330;BME280;18807;52.434;13.238;2023-02-02T13:10:08;101339.09;;;4.76;100.00
32330;BME280;18807;52.434;13.238;2023-02-02T13:17:49;101349.75;;;4.77;100.00
32330;BME280;18807;52.434;13.238;2023-02-02T13:25:26;101374.72;;;4.84;100.00
32330;BME280;18807;52.434;13.238;2023-02-02T13:33:12;101385.03;;;4.95;100.00
32330;BME280;18807;52.434;13.238;2023-02-02T13:40:49;101406.16;;;5.13;100.00
32330;BME280;18807;52.434;13.238;2023-02-02T13:48:33;101415.47;;;5.24;100.00
32330;BME280;18807;52.434;13.238;2023-02-02T13:56:14;101412.28;;;5.31;100.00
32330;BME280;18807;52.434;13.238;2023-02-02T14:03:55;101436.94;;;5.30;100.00
32330;BME280;18807;52.434;13.238;2023-02-02T14:11:31;101457.38;;;5.32;100.00
32330;BME280;18807;52.434;13.238;2023-02-02T14:19:13;101462.97;;;5.38;100.00
32330;BME280;18807;52.434;13.238;2023-02-02T14:26:49;101483.41;;;5.41;98.19
32330;BME280;18807;52.434;13.238;2023-02-02T14:34:33;101494.63;;;5.35;97.57
32330;BME280;18807;52.434;13.238;2023-02-02T14:42:17;101515.44;;;5.28;94.79
32330;BME280;18807;52.434;13.238;2023-02-02T14:50:17;101526.69;;;5.24;91.33
32330;BME280;18807;52.434;13.238;2023-02-02T14:57:55;101547.66;;;5.19;86.61
32330;BME280;18807;52.434;13.238;2023-02-02T15:05:35;101565.84;;;5.12;87.42
32330;BME280;18807;52.434;13.238;2023-02-02T15:13:14;101570.59;;;5.01;86.74
32330;BME280;18807;52.434;13.238;2023-02-02T15:20:55;101576.56;;;4.97;84.34
32330;BME280;18807;52.434;13.238;2023-02-02T15:28:37;101599.09;;;4.89;82.53
32330;BME280;18807;52.434;13.238;2023-02-02T15:36:19;101619.72;;;4.79;83.07
32330;BME280;18807;52.434;13.238;2023-02-02T15:43:55;101632.41;;;4.68;82.17
32330;BME280;18807;52.434;13.238;2023-02-02T15:51:30;101652.91;;;4.56;81.52
32330;BME280;18807;52.434;13.238;2023-02-02T15:59:17;101665.66;;;4.47;81.33
32330;BME280;18807;52.434;13.238;2023-02-02T16:06:54;101686.41;;;4.40;81.19
32330;BME280;18807;52.434;13.238;2023-02-02T16:14:29;101706.16;;;4.30;82.33
32330;BME280;18807;52.434;13.238;2023-02-02T16:22:09;101727.06;;;4.26;84.03
32330;BME280;18807;52.434;13.238;2023-02-02T16:29:44;101737.31;;;4.20;85.62
32330;BME280;18807;52.434;13.238;2023-02-02T16:37:21;101755.19;;;4.09;88.90
32330;BME280;18807;52.434;13.238;2023-02-02T16:44:59;101778.19;;;3.95;93.04
32330;BME280;18807;52.434;13.238;2023-02-02T16:52:47;101787.78;;;3.79;97.25
32330;BME280;18807;52.434;13.238;2023-02-02T17:00:24;101806.50;;;3.67;100.00
32330;BME280;18807;52.434;13.238;2023-02-02T17:08:01;101816.06;;;3.51;100.00
32330;BME280;18807;52.434;13.238;2023-02-02T17:15:37;101825.69;;;3.36;100.00
32330;BME280;18807;52.434;13.238;2023-02-02T17:23:15;101827.59;;;3.24;100.00
32330;BME280;18807;52.434;13.238;2023-02-02T17:30:55;101840.84;;;3.11;100.00
32330;BME280;18807;52.434;13.238;2023-02-02T17:38:33;101844.56;;;3.00;100.00
32330;BME280;18807;52.434;13.238;2023-02-02T17:46:09;101868.34;;;2.87;100.00
32330;BME280;18807;52.434;13.238;2023-02-02T17:53:45;101873.47;;;2.71;100.00
32330;BME280;18807;52.434;13.238;2023-02-02T18:01:19;101884.25;;;2.61;100.00
32330;BME280;18807;52.434;13.238;2023-02-02T18:08:54;101883.56;;;2.50;100.00
32330;BME280;18807;52.434;13.238;2023-02-02T18:16:28;101890.97;;;2.43;100.00
32330;BME280;18807;52.434;13.238;2023-02-02T18:24:04;101885.00;;;2.32;100.00
32330;BME280;18807;52.434;13.238;2023-02-02T18:31:38;101897.69;;;2.25;100.00
32330;BME280;18807;52.434;13.238;2023-02-02T18:39:15;101893.84;;;2.20;100.00
32330;BME280;18807;52.434;13.238;2023-02-02T18:46:49;101889.69;;;2.10;100.00
32330;BME280;18807;52.434;13.238;2023-02-02T18:54:24;101881.16;;;2.01;100.00
32330;BME280;18807;52.434;13.238;2023-02-02T19:01:58;101875.50;;;1.95;100.00
32330;BME280;18807;52.434;13.238;2023-02-02T19:09:34;101882.66;;;1.84;100.00
32330;BME280;18807;52.434;13.238;2023-02-02T19:17:16;101887.41;;;1.77;100.00
32330;BME280;18807;52.434;13.238;2023-02-02T19:24:55;101893.09;;;1.70;100.00
32330;BME280;18807;52.434;13.238;2023-02-02T19:32:31;101908.47;;;1.64;100.00
32330;BME280;18807;52.434;13.238;2023-02-02T19:40:17;101898.22;;;1.55;100.00
32330;BME280;18807;52.434;13.238;2023-02-02T19:47:52;101910.25;;;1.52;100.00
32330;BME280;18807;52.434;13.238;2023-02-02T19:55:34;101912.69;;;1.49;100.00
32330;BME280;18807;52.434;13.238;2023-02-02T20:03:10;101915.00;;;1.44;100.00
32330;BME280;18807;52.434;13.238;2023-02-02T20:10:46;101915.69;;;1.42;100.00
32330;BME280;18807;52.434;13.238;2023-02-02T20:18:22;101916.41;;;1.39;100.00
32330;BME280;18807;52.434;13.238;2023-02-02T20:25:59;101912.97;;;1.40;100.00
32330;BME280;18807;52.434;13.238;2023-02-02T20:33:35;101899.59;;;1.37;100.00
32330;BME280;18807;52.434;13.238;2023-02-02T20:41:12;101902.00;;;1.34;100.00
32330;BME280;18807;52.434;13.238;2023-02-02T20:48:47;101901.28;;;1.37;100.00
32330;BME280;18807;52.434;13.238;2023-02-02T20:56:22;101896.75;;;1.34;100.00
32330;BME280;18807;52.434;13.238;2023-02-02T21:03:56;101888.13;;;1.37;100.00
32330;BME280;18807;52.434;13.238;2023-02-02T21:11:31;101894.00;;;1.33;100.00
32330;BME280;18807;52.434;13.238;2023-02-02T21:19:06;101873.66;;;1.30;100.00
32330;BME280;18807;52.434;13.238;2023-02-02T21:26:41;101870.50;;;1.23;100.00
32330;BME280;18807;52.434;13.238;2023-02-02T21:34:16;101861.78;;;1.24;100.00
32330;BME280;18807;52.434;13.238;2023-02-02T21:41:59;101860.09;;;1.24;100.00
32330;BME280;18807;52.434;13.238;2023-02-02T21:49:42;101854.00;;;1.25;100.00
32330;BME280;18807;52.434;13.238;2023-02-02T21:57:20;101849.91;;;1.17;100.00
32330;BME280;18807;52.434;13.238;2023-02-02T22:04:56;101849.13;;;1.18;100.00
32330;BME280;18807;52.434;13.238;2023-02-02T22:12:39;101841.25;;;1.18;100.00
32330;BME280;18807;52.434;13.238;2023-02-02T22:20:26;101828.88;;;1.17;100.00
32330;BME280;18807;52.434;13.238;2023-02-02T22:28:12;101825.25;;;1.15;100.00
32330;BME280;18807;52.434;13.238;2023-02-02T22:35:49;101830.72;;;1.18;100.00
32330;BME280;18807;52.434;13.238;2023-02-02T22:43:24;101831.16;;;1.24;100.00
32330;BME280;18807;52.434;13.238;2023-02-02T22:50:58;101834.88;;;1.28;100.00
32330;BME280;18807;52.434;13.238;2023-02-02T22:58:33;101829.94;;;1.32;100.00
32330;BME280;18807;52.434;13.238;2023-02-02T23:06:07;101826.81;;;1.38;100.00
32330;BME280;18807;52.434;13.238;2023-02-02T23:13:42;101823.38;;;1.39;100.00
32330;BME280;18807;52.434;13.238;2023-02-02T23:21:16;101813.16;;;1.43;100.00
32330;BME280;18807;52.434;13.238;2023-02-02T23:28:51;101807.19;;;1.46;100.00
32330;BME280;18807;52.434;13.238;2023-02-02T23:36:25;101793.31;;;1.48;100.00
32330;BME280;18807;52.434;13.238;2023-02-02T23:44:00;101781.47;;;1.55;100.00
32330;BME280;18807;52.434;13.238;2023-02-02T23:51:34;101767.69;;;1.59;100.00
32330;BME280;18807;52.434;13.238;2023-02-02T23:59:10;101759.31;;;1.64;100.00
